createdAt,value
2022-12-29T00:00:01.494Z,96692.44
2022-12-29T00:02:28.358Z,96701.38
2022-12-29T00:04:55.128Z,96687.56
2022-12-29T00:07:21.864Z,96690.63
2022-12-29T00:09:48.552Z,96683.16
2022-12-29T00:12:15.380Z,96703.75
2022-12-29T00:15:00.580Z,96718.97
2022-12-29T00:17:27.490Z,96697.56
2022-12-29T00:20:12.816Z,96701.72
2022-12-29T00:22:59.335Z,96701.25
2022-12-29T00:25:44.647Z,96710.78
2022-12-29T00:28:29.878Z,96692.81
2022-12-29T00:31:21.934Z,96693.50
2022-12-29T00:34:07.704Z,96709.25
2022-12-29T00:36:38.335Z,96712.34
2022-12-29T00:39:32.575Z,96711.13
2022-12-29T00:42:26.834Z,96698.41
2022-12-29T00:44:53.697Z,96695.78
2022-12-29T00:47:20.357Z,96704.84
2022-12-29T00:49:47.117Z,96704.47
2022-12-29T00:52:14.750Z,96694.09
2022-12-29T00:54:42.338Z,96705.75
2022-12-29T00:57:10.501Z,96680.19
2022-12-29T00:59:38.693Z,96691.38
2022-12-29T01:02:05.593Z,96691.13
2022-12-29T01:04:32.566Z,96688.97
2022-12-29T01:06:59.777Z,96711.75
2022-12-29T01:09:45.003Z,96687.91
2022-12-29T01:12:12.510Z,96685.78
2022-12-29T01:14:39.846Z,96696.03
2022-12-29T01:17:07.009Z,96680.78
2022-12-29T01:19:34.374Z,96691.38
2022-12-29T01:22:01.232Z,96691.47
2022-12-29T01:24:28.621Z,96699.13
2022-12-29T01:26:55.659Z,96677.78
2022-12-29T01:29:22.898Z,96678.63
2022-12-29T01:31:51.023Z,96680.06
2022-12-29T01:34:18.761Z,96662.91
2022-12-29T01:36:45.569Z,96684.22
2022-12-29T01:39:13.305Z,96664.94
2022-12-29T01:41:41.521Z,96668.25
2022-12-29T01:44:40.691Z,96674.94
2022-12-29T01:47:08.547Z,96675.53
2022-12-29T01:49:35.781Z,96651.38
2022-12-29T01:52:06.209Z,96661.13
2022-12-29T01:54:39.801Z,96662.78
2022-12-29T01:57:10.181Z,96664.56
2022-12-29T01:59:41.282Z,96639.09
2022-12-29T02:02:08.622Z,96633.63
2022-12-29T02:04:36.237Z,96647.44
2022-12-29T02:07:05.730Z,96665.06
2022-12-29T02:09:32.461Z,96651.97
2022-12-29T02:11:59.531Z,96660.03
2022-12-29T02:14:26.358Z,96638.16
2022-12-29T02:17:08.843Z,96646.84
2022-12-29T02:19:54.307Z,96638.75
2022-12-29T02:22:43.080Z,96630.78
2022-12-29T02:25:19.068Z,96627.09
2022-12-29T02:27:56.588Z,96633.63
2022-12-29T02:30:28.234Z,96637.78
2022-12-29T02:33:20.959Z,96629.13
2022-12-29T02:35:55.878Z,96617.09
2022-12-29T02:38:28.280Z,96608.16
2022-12-29T02:40:55.025Z,96611.63
2022-12-29T02:43:38.393Z,96629.47
2022-12-29T02:46:14.386Z,96640.53
2022-12-29T02:49:02.875Z,96636.59
2022-12-29T02:51:45.085Z,96641.84
2022-12-29T02:54:31.011Z,96645.19
2022-12-29T02:56:57.798Z,96640.06
2022-12-29T02:59:24.799Z,96625.75
2022-12-29T03:02:23.907Z,96625.75
2022-12-29T03:05:04.856Z,96639.44
2022-12-29T03:07:43.555Z,96626.38
2022-12-29T03:10:38.368Z,96621.00
2022-12-29T03:13:55.079Z,96617.78
2022-12-29T03:16:48.914Z,96604.34
2022-12-29T03:19:49.005Z,96585.28
2022-12-29T03:22:29.106Z,96579.34
2022-12-29T03:25:23.726Z,96583.25
2022-12-29T03:27:54.629Z,96583.97
2022-12-29T03:30:21.800Z,96578.38
2022-12-29T03:32:56.028Z,96572.91
2022-12-29T03:35:27.254Z,96563.50
2022-12-29T03:38:15.955Z,96562.19
2022-12-29T03:40:48.718Z,96556.72
2022-12-29T03:43:15.960Z,96564.81
2022-12-29T03:45:42.791Z,96557.91
2022-12-29T03:48:10.107Z,96550.53
2022-12-29T03:50:40.852Z,96569.94
2022-12-29T03:53:08.027Z,96561.72
2022-12-29T03:55:34.786Z,96553.72
2022-12-29T03:58:01.844Z,96578.00
2022-12-29T04:00:54.744Z,96576.09
2022-12-29T04:03:21.848Z,96587.66
2022-12-29T04:05:48.653Z,96571.31
2022-12-29T04:08:15.631Z,96580.72
2022-12-29T04:10:42.938Z,96570.47
2022-12-29T04:13:09.754Z,96569.91
2022-12-29T04:15:36.639Z,96562.41
2022-12-29T04:18:03.535Z,96564.44
2022-12-29T04:20:48.862Z,96562.72
2022-12-29T04:23:15.916Z,96552.72
2022-12-29T04:25:46.220Z,96563.06
2022-12-29T04:28:14.975Z,96553.53
2022-12-29T04:30:50.753Z,96555.19
2022-12-29T04:33:26.506Z,96561.38
2022-12-29T04:35:55.018Z,96553.16
2022-12-29T04:38:24.082Z,96553.06
2022-12-29T04:40:52.436Z,96536.72
2022-12-29T04:43:23.269Z,96529.34
2022-12-29T04:46:08.803Z,96540.91
2022-12-29T04:48:43.632Z,96547.34
2022-12-29T04:51:33.595Z,96537.00
2022-12-29T04:54:00.405Z,96556.78
2022-12-29T04:56:31.952Z,96532.72
2022-12-29T04:58:58.773Z,96540.22
2022-12-29T05:01:25.584Z,96540.53
2022-12-29T05:03:53.102Z,96547.19
2022-12-29T05:06:20.276Z,96516.69
2022-12-29T05:08:47.246Z,96513.47
2022-12-29T05:11:14.987Z,96527.75
2022-12-29T05:13:46.689Z,96517.75
2022-12-29T05:16:14.251Z,96515.84
2022-12-29T05:18:41.504Z,96528.31
2022-12-29T05:21:08.885Z,96511.16
2022-12-29T05:23:35.763Z,96530.16
2022-12-29T05:26:06.046Z,96545.38
2022-12-29T05:28:48.838Z,96515.94
2022-12-29T05:31:19.312Z,96521.88
2022-12-29T05:33:46.557Z,96516.25
2022-12-29T05:36:13.500Z,96498.63
2022-12-29T05:38:45.846Z,96513.03
2022-12-29T05:41:13.445Z,96488.38
2022-12-29T05:44:00.394Z,96516.00
2022-12-29T05:46:49.290Z,96511.84
2022-12-29T05:49:16.863Z,96523.50
2022-12-29T05:52:01.996Z,96505.03
2022-12-29T05:54:29.561Z,96519.53
2022-12-29T05:56:58.544Z,96526.34
2022-12-29T05:59:25.426Z,96539.44
2022-12-29T06:01:54.034Z,96511.31
2022-12-29T06:04:21.011Z,96520.16
2022-12-29T06:06:48.282Z,96503.59
2022-12-29T06:09:24.829Z,96508.34
2022-12-29T06:11:53.679Z,96504.53
2022-12-29T06:14:20.316Z,96487.34
2022-12-29T06:16:47.934Z,96513.84
2022-12-29T06:19:14.676Z,96517.81
2022-12-29T06:21:41.451Z,96527.13
2022-12-29T06:24:09.695Z,96525.56
2022-12-29T06:26:38.038Z,96518.56
2022-12-29T06:29:04.738Z,96542.53
2022-12-29T06:31:31.832Z,96542.63
2022-12-29T06:34:00.354Z,96545.97
2022-12-29T06:36:30.393Z,96544.75
2022-12-29T06:38:57.116Z,96537.75
2022-12-29T06:41:29.981Z,96555.00
2022-12-29T06:44:22.740Z,96525.69
2022-12-29T06:46:58.555Z,96547.31
2022-12-29T06:49:25.280Z,96536.22
2022-12-29T06:51:52.060Z,96522.03
2022-12-29T06:54:18.887Z,96545.47
2022-12-29T06:56:45.600Z,96529.97
2022-12-29T06:59:12.445Z,96509.34
2022-12-29T07:01:39.250Z,96532.59
2022-12-29T07:04:06.237Z,96537.16
2022-12-29T07:06:32.929Z,96547.06
2022-12-29T07:08:59.773Z,96553.72
2022-12-29T07:11:26.740Z,96555.28
2022-12-29T07:13:53.494Z,96538.47
2022-12-29T07:16:21.235Z,96529.63
2022-12-29T07:18:48.041Z,96532.38
2022-12-29T07:21:14.710Z,96526.91
2022-12-29T07:23:41.956Z,96543.34
2022-12-29T07:26:12.253Z,96551.69
2022-12-29T07:28:39.672Z,96564.31
2022-12-29T07:31:07.405Z,96554.44
2022-12-29T07:33:34.275Z,96559.47
2022-12-29T07:36:01.170Z,96578.28
2022-12-29T07:38:27.873Z,96588.41
2022-12-29T07:40:58.078Z,96565.91
2022-12-29T07:43:24.961Z,96575.19
2022-12-29T07:46:53.455Z,96582.31
2022-12-29T07:48:58.969Z,96580.63
2022-12-29T07:51:25.611Z,96599.72
2022-12-29T07:53:52.372Z,96566.69
2022-12-29T07:56:19.101Z,96587.09
2022-12-29T07:58:45.876Z,96585.28
2022-12-29T08:01:12.568Z,96609.59
2022-12-29T08:03:42.306Z,96611.00
2022-12-29T08:06:12.942Z,96603.00
2022-12-29T08:08:39.585Z,96603.44
2022-12-29T08:11:06.277Z,96608.50
2022-12-29T08:13:33.734Z,96617.19
2022-12-29T08:16:00.884Z,96618.00
2022-12-29T08:18:27.671Z,96625.03
2022-12-29T08:20:55.863Z,96638.75
2022-12-29T08:23:22.867Z,96630.41
2022-12-29T08:25:58.433Z,96626.03
2022-12-29T08:28:25.223Z,96634.34
2022-12-29T08:30:52.031Z,96654.41
2022-12-29T08:33:19.084Z,96653.81
2022-12-29T08:35:45.936Z,96647.63
2022-12-29T08:38:12.794Z,96652.00
2022-12-29T08:40:39.476Z,96675.00
2022-12-29T08:43:06.336Z,96671.66
2022-12-29T08:45:33.337Z,96671.03
2022-12-29T08:48:00.151Z,96679.75
2022-12-29T08:50:27.011Z,96675.38
2022-12-29T08:52:53.748Z,96668.47
2022-12-29T08:55:20.459Z,96669.28
2022-12-29T08:57:47.691Z,96665.22
2022-12-29T09:00:17.665Z,96660.25
2022-12-29T09:02:45.203Z,96671.69
2022-12-29T09:05:12.122Z,96668.81
2022-12-29T09:07:39.391Z,96682.41
2022-12-29T09:10:06.381Z,96672.38
2022-12-29T09:12:36.373Z,96702.06
2022-12-29T09:15:04.382Z,96687.75
2022-12-29T09:17:46.608Z,96680.34
2022-12-29T09:20:15.951Z,96697.16
2022-12-29T09:22:43.962Z,96707.38
2022-12-29T09:25:11.419Z,96696.41
2022-12-29T09:27:38.401Z,96710.97
2022-12-29T09:30:07.468Z,96706.31
2022-12-29T09:32:36.852Z,96709.28
2022-12-29T09:35:06.104Z,96699.72
2022-12-29T09:37:32.940Z,96730.97
2022-12-29T09:39:59.944Z,96721.94
2022-12-29T09:42:38.570Z,96709.41
2022-12-29T09:45:21.686Z,96714.44
2022-12-29T09:47:48.564Z,96709.53
2022-12-29T09:50:54.452Z,96718.84
2022-12-29T09:53:31.204Z,96738.19
2022-12-29T09:56:01.468Z,96732.34
2022-12-29T09:58:50.019Z,96726.03
2022-12-29T10:01:35.020Z,96727.22
2022-12-29T10:04:08.906Z,96718.31
2022-12-29T10:06:56.468Z,96714.59
2022-12-29T10:09:32.640Z,96708.03
2022-12-29T10:12:02.313Z,96704.56
2022-12-29T10:15:04.033Z,96700.75
2022-12-29T10:18:15.828Z,96718.75
2022-12-29T10:20:52.900Z,96704.59
2022-12-29T10:23:36.557Z,96696.47
2022-12-29T10:26:04.180Z,96712.66
2022-12-29T10:28:34.567Z,96706.84
2022-12-29T10:31:08.686Z,96702.78
2022-12-29T10:33:40.609Z,96702.66
2022-12-29T10:36:40.515Z,96710.41
2022-12-29T10:39:31.487Z,96692.66
2022-12-29T10:42:09.907Z,96698.84
2022-12-29T10:44:36.858Z,96703.13
2022-12-29T10:47:19.006Z,96697.63
2022-12-29T10:49:48.463Z,96697.63
2022-12-29T10:52:17.405Z,96696.47
2022-12-29T10:54:54.382Z,96683.94
2022-12-29T10:57:36.289Z,96678.00
2022-12-29T11:00:13.472Z,96687.19
2022-12-29T11:03:08.256Z,96677.63
2022-12-29T11:06:12.227Z,96686.69
2022-12-29T11:09:14.037Z,96686.56
2022-12-29T11:11:40.812Z,96688.13
2022-12-29T11:14:22.852Z,96679.91
2022-12-29T11:16:59.040Z,96682.28
2022-12-29T11:19:39.060Z,96675.00
2022-12-29T11:22:21.545Z,96685.34
2022-12-29T11:24:48.690Z,96675.56
2022-12-29T11:27:26.821Z,96676.53
2022-12-29T11:29:54.761Z,96680.25
2022-12-29T11:32:29.090Z,96680.13
2022-12-29T11:34:58.767Z,96669.28
2022-12-29T11:37:30.057Z,96675.47
2022-12-29T11:39:57.840Z,96669.63
2022-12-29T11:42:43.126Z,96657.34
2022-12-29T11:45:17.470Z,96657.84
2022-12-29T11:47:46.735Z,96660.25
2022-12-29T11:50:20.322Z,96655.59
2022-12-29T11:52:47.354Z,96658.72
2022-12-29T11:55:23.010Z,96651.94
2022-12-29T11:57:51.314Z,96651.22
2022-12-29T12:00:20.997Z,96654.53
2022-12-29T12:03:02.287Z,96651.22
2022-12-29T12:05:46.121Z,96643.81
2022-12-29T12:08:33.127Z,96639.28
2022-12-29T12:11:07.631Z,96642.84
2022-12-29T12:14:12.148Z,96637.16
2022-12-29T12:17:24.608Z,96631.53
2022-12-29T12:20:06.064Z,96632.84
2022-12-29T12:22:36.798Z,96630.72
2022-12-29T12:25:10.769Z,96617.13
2022-12-29T12:27:42.562Z,96615.94
2022-12-29T12:30:12.182Z,96622.03
2022-12-29T12:32:44.516Z,96598.44
2022-12-29T12:35:27.374Z,96608.09
2022-12-29T12:38:14.321Z,96615.22
2022-12-29T12:40:50.051Z,96600.31
2022-12-29T12:43:58.227Z,96596.84
2022-12-29T12:46:37.310Z,96594.13
2022-12-29T12:49:28.865Z,96591.72
2022-12-29T12:52:07.516Z,96591.88
2022-12-29T12:54:34.180Z,96595.31
2022-12-29T12:57:14.181Z,96592.56
2022-12-29T12:59:48.155Z,96595.41
2022-12-29T13:02:39.628Z,96592.56
2022-12-29T13:05:28.557Z,96590.78
2022-12-29T13:08:19.550Z,96592.91
2022-12-29T13:10:53.490Z,96586.59
2022-12-29T13:13:47.780Z,96581.09
2022-12-29T13:16:27.235Z,96592.19
2022-12-29T13:18:59.979Z,96608.31
2022-12-29T13:21:35.972Z,96648.91
2022-12-29T13:24:11.964Z,96658.81
2022-12-29T13:26:49.265Z,96638.84
2022-12-29T13:29:31.620Z,96635.75
2022-12-29T13:32:25.993Z,96632.19
2022-12-29T13:34:56.217Z,96647.44
2022-12-29T13:37:27.572Z,96646.13
2022-12-29T13:39:59.051Z,96659.22
2022-12-29T13:42:26.707Z,96650.78
2022-12-29T13:45:03.841Z,96645.06
2022-12-29T13:47:36.575Z,96661.59
2022-12-29T13:50:05.887Z,96654.00
2022-12-29T13:52:51.426Z,96643.41
2022-12-29T13:55:27.383Z,96645.78
2022-12-29T13:58:12.384Z,96652.94
2022-12-29T14:01:08.357Z,96662.06
2022-12-29T14:04:02.602Z,96660.06
2022-12-29T14:06:31.429Z,96659.22
2022-12-29T14:09:02.655Z,96666.00
2022-12-29T14:11:49.664Z,96662.56
2022-12-29T14:14:26.617Z,96669.22
2022-12-29T14:16:54.069Z,96672.19
2022-12-29T14:19:27.963Z,96684.81
2022-12-29T14:22:05.454Z,96677.31
2022-12-29T14:24:41.038Z,96692.78
2022-12-29T14:27:10.679Z,96688.03
2022-12-29T14:29:40.129Z,96668.03
2022-12-29T14:32:21.782Z,96689.44
2022-12-29T14:34:52.646Z,96679.91
2022-12-29T14:37:27.529Z,96677.06
2022-12-29T14:40:23.989Z,96687.31
2022-12-29T14:42:52.908Z,96683.13
2022-12-29T14:45:19.764Z,96678.59
2022-12-29T14:47:51.392Z,96683.09
2022-12-29T14:50:25.698Z,96683.81
2022-12-29T14:53:04.368Z,96677.16
2022-12-29T14:56:09.789Z,96670.72
2022-12-29T14:58:52.948Z,96684.66
2022-12-29T15:01:44.530Z,96687.66
2022-12-29T15:04:18.539Z,96687.16
2022-12-29T15:06:46.987Z,96690.84
2022-12-29T15:09:24.547Z,96694.91
2022-12-29T15:11:57.057Z,96689.69
2022-12-29T15:14:39.177Z,96698.72
2022-12-29T15:17:28.107Z,96706.34
2022-12-29T15:19:56.090Z,96698.84
2022-12-29T15:22:23.025Z,96699.31
2022-12-29T15:24:52.987Z,96691.34
2022-12-29T15:27:25.216Z,96698.38
2022-12-29T15:30:03.077Z,96701.09
2022-12-29T15:32:40.241Z,96685.28
2022-12-29T15:35:24.084Z,96682.78
2022-12-29T15:37:50.949Z,96699.31
2022-12-29T15:40:32.301Z,96694.28
2022-12-29T15:43:14.137Z,96700.47
2022-12-29T15:45:41.001Z,96699.31
2022-12-29T15:48:16.697Z,96683.47
2022-12-29T15:50:44.173Z,96683.59
2022-12-29T15:53:20.811Z,96692.63
2022-12-29T15:55:48.783Z,96684.66
2022-12-29T15:58:24.638Z,96685.28
2022-12-29T16:00:57.936Z,96694.56
2022-12-29T16:03:26.526Z,96691.22
2022-12-29T16:05:55.996Z,96681.47
2022-12-29T16:08:43.049Z,96683.00
2022-12-29T16:11:29.087Z,96697.28
2022-12-29T16:13:56.828Z,96690.16
2022-12-29T16:16:36.697Z,96687.41
2022-12-29T16:19:33.735Z,96688.00
2022-12-29T16:22:01.950Z,96683.13
2022-12-29T16:24:32.224Z,96684.66
2022-12-29T16:27:21.709Z,96687.06
2022-12-29T16:29:50.456Z,96690.50
2022-12-29T16:32:29.064Z,96693.25
2022-12-29T16:35:14.370Z,96695.41
2022-12-29T16:37:41.634Z,96691.94
2022-12-29T16:40:23.884Z,96695.97
2022-12-29T16:42:52.488Z,96710.25
2022-12-29T16:45:19.187Z,96705.25
2022-12-29T16:47:50.687Z,96717.66
2022-12-29T16:50:28.262Z,96720.47
2022-12-29T16:52:55.256Z,96722.38
2022-12-29T16:55:21.973Z,96724.53
2022-12-29T16:57:50.626Z,96730.00
2022-12-29T17:00:22.753Z,96725.09
2022-12-29T17:02:50.599Z,96724.28
2022-12-29T17:05:19.080Z,96724.84
2022-12-29T17:07:46.841Z,96727.72
2022-12-29T17:10:16.440Z,96737.47
2022-12-29T17:12:44.660Z,96735.34
2022-12-29T17:15:17.409Z,96730.22
2022-12-29T17:17:47.644Z,96729.84
2022-12-29T17:20:19.368Z,96724.63
2022-12-29T17:22:46.712Z,96734.97
2022-12-29T17:25:16.722Z,96736.13
2022-12-29T17:27:56.253Z,96736.03
2022-12-29T17:30:29.708Z,96748.47
2022-12-29T17:33:04.896Z,96738.34
2022-12-29T17:35:31.677Z,96740.81
2022-12-29T17:37:58.355Z,96749.03
2022-12-29T17:40:28.233Z,96755.59
2022-12-29T17:42:57.404Z,96769.78
2022-12-29T17:45:25.243Z,96761.44
2022-12-29T17:47:51.990Z,96750.97
2022-12-29T17:50:21.943Z,96756.38
2022-12-29T17:52:57.417Z,96760.41
2022-12-29T17:55:32.820Z,96763.88
2022-12-29T17:58:16.762Z,96756.78
2022-12-29T18:00:43.551Z,96753.00
2022-12-29T18:03:29.513Z,96760.56
2022-12-29T18:05:56.744Z,96773.81
2022-12-29T18:08:23.517Z,96758.41
2022-12-29T18:10:54.339Z,96772.22
2022-12-29T18:13:28.989Z,96764.13
2022-12-29T18:16:00.656Z,96776.50
2022-12-29T18:18:28.039Z,96779.50
2022-12-29T18:20:56.884Z,96776.03
2022-12-29T18:23:25.809Z,96776.03
2022-12-29T18:25:59.343Z,96772.59
2022-12-29T18:28:26.738Z,96768.56
2022-12-29T18:30:54.294Z,96757.72
2022-12-29T18:33:25.024Z,96764.50
2022-12-29T18:36:04.855Z,96767.50
2022-12-29T18:38:31.961Z,96776.69
2022-12-29T18:40:59.308Z,96769.06
2022-12-29T18:43:26.221Z,96772.97
2022-12-29T18:45:52.913Z,96766.53
2022-12-29T18:48:20.187Z,96771.16
2022-12-29T18:50:49.876Z,96771.16
2022-12-29T18:53:26.582Z,96775.34
2022-12-29T18:55:54.725Z,96782.94
2022-12-29T18:58:21.382Z,96776.75
2022-12-29T19:00:48.256Z,96789.00
2022-12-29T19:03:17.796Z,96792.78
2022-12-29T19:05:46.025Z,96793.50
2022-12-29T19:08:13.402Z,96795.63
2022-12-29T19:10:41.028Z,96792.19
2022-12-29T19:13:09.688Z,96789.47
2022-12-29T19:15:40.284Z,96788.03
2022-12-29T19:20:56.878Z,96804.44
2022-12-29T19:23:25.244Z,96800.13
2022-12-29T19:25:53.220Z,96802.63
2022-12-29T19:28:26.895Z,96787.50
2022-12-29T19:30:57.422Z,96781.47
2022-12-29T19:33:24.272Z,96775.34
2022-12-29T19:35:52.185Z,96776.25
2022-12-29T19:38:19.810Z,96775.28
2022-12-29T19:40:48.772Z,96786.06
2022-12-29T19:43:15.634Z,96788.81
2022-12-29T19:45:43.793Z,96782.38
2022-12-29T19:48:16.846Z,96780.78
2022-12-29T19:50:44.290Z,96767.41
2022-12-29T19:53:11.585Z,96773.00
2022-12-29T19:55:42.433Z,96770.25
2022-12-29T19:58:09.211Z,96788.69
2022-12-29T20:00:35.974Z,96792.03
2022-12-29T20:03:02.909Z,96804.97
2022-12-29T20:05:29.576Z,96803.38
2022-12-29T20:07:56.274Z,96814.19
2022-12-29T20:10:22.992Z,96811.31
2022-12-29T20:12:49.655Z,96796.94
2022-12-29T20:15:16.351Z,96816.78
2022-12-29T20:18:12.312Z,96815.78
2022-12-29T20:20:30.108Z,96820.56
2022-12-29T20:22:57.865Z,96813.06
2022-12-29T20:28:11.532Z,96825.56
2022-12-29T20:30:38.296Z,96824.72
2022-12-29T20:33:08.525Z,96824.59
2022-12-29T20:35:36.633Z,96823.16
2022-12-29T20:38:04.057Z,96827.22
2022-12-29T20:40:30.775Z,96824.91
2022-12-29T20:42:57.490Z,96847.63
2022-12-29T20:45:24.423Z,96846.34
2022-12-29T20:47:51.167Z,96828.47
2022-12-29T20:50:18.086Z,96833.38
2022-12-29T20:52:44.740Z,96818.13
2022-12-29T20:55:11.456Z,96830.50
2022-12-29T20:58:21.930Z,96843.34
2022-12-29T21:00:25.733Z,96830.97
2022-12-29T21:02:53.141Z,96822.06
2022-12-29T21:05:24.504Z,96856.88
2022-12-29T21:07:52.991Z,96848.53
2022-12-29T21:10:20.085Z,96850.69
2022-12-29T21:12:47.751Z,96851.25
2022-12-29T21:15:15.662Z,96866.38
2022-12-29T21:17:43.601Z,96875.03
2022-12-29T21:20:19.999Z,96869.56
2022-12-29T21:22:47.844Z,96866.81
2022-12-29T21:25:14.733Z,96873.00
2022-12-29T21:27:44.639Z,96877.28
2022-12-29T21:30:12.481Z,96886.38
2022-12-29T21:32:39.844Z,96884.94
2022-12-29T21:35:07.538Z,96888.38
2022-12-29T21:37:34.756Z,96891.56
2022-12-29T21:40:02.284Z,96909.09
2022-12-29T21:42:29.049Z,96902.09
2022-12-29T21:45:21.025Z,96904.09
2022-12-29T21:48:07.405Z,96911.72
2022-12-29T21:50:57.684Z,96903.38
2022-12-29T21:53:37.689Z,96904.22
2022-12-29T21:56:04.777Z,96909.84
2022-12-29T21:59:04.078Z,96917.91
2022-12-29T22:01:51.167Z,96921.94
2022-12-29T22:04:38.195Z,96916.34
2022-12-29T22:07:25.090Z,96922.84
2022-12-29T22:10:10.673Z,96931.16
2022-12-29T22:12:56.373Z,96933.31
2022-12-29T22:15:23.875Z,96930.84
2022-12-29T22:17:52.552Z,96932.44
2022-12-29T22:20:21.655Z,96928.13
2022-12-29T22:22:48.529Z,96933.16
2022-12-29T22:25:15.371Z,96942.19
2022-12-29T22:27:42.078Z,96933.88
2022-12-29T22:30:09.118Z,96955.56
2022-12-29T22:32:35.882Z,96952.84
2022-12-29T22:35:07.733Z,96961.03
2022-12-29T22:37:35.982Z,96967.56
2022-12-29T22:40:03.863Z,96972.28
2022-12-29T22:42:30.628Z,96975.75
2022-12-29T22:44:57.324Z,96969.44
2022-12-29T22:47:24.053Z,96975.19
2022-12-29T22:49:50.747Z,96971.34
2022-12-29T22:52:17.521Z,96970.75
2022-12-29T22:54:44.188Z,96967.88
2022-12-29T22:57:11.066Z,96971.88
2022-12-29T22:59:37.916Z,96981.69
2022-12-29T23:02:04.752Z,96978.63
2022-12-29T23:07:18.435Z,96991.72
2022-12-29T23:09:45.145Z,96991.31
2022-12-29T23:12:11.868Z,96996.06
2022-12-29T23:14:38.889Z,97000.81
2022-12-29T23:17:05.829Z,96997.47
2022-12-29T23:19:32.559Z,97000.09
2022-12-29T23:21:59.299Z,97006.13
2022-12-29T23:24:25.945Z,96998.78
2022-12-29T23:26:52.753Z,97001.94
2022-12-29T23:29:19.980Z,97006.84
2022-12-29T23:31:47.634Z,97009.44
2022-12-29T23:34:15.996Z,97003.41
2022-12-29T23:36:43.089Z,96999.22
2022-12-29T23:39:10.752Z,97004.41
2022-12-29T23:41:37.653Z,97004.56
2022-12-29T23:44:04.431Z,96994.81
2022-12-29T23:46:31.431Z,96982.88
2022-12-29T23:48:58.542Z,96970.81
2022-12-29T23:51:25.420Z,96971.81
2022-12-29T23:53:52.129Z,96972.81
2022-12-29T23:56:21.633Z,96969.09
2022-12-29T23:58:49.343Z,96970.22
